Time;durP1;ratioP1;P1;durP2;ratioP2;P2;SDS_P1;SDS_P2;PMS_P1;PMS_P2;Temp;Humidity;BMP_temperature;BMP_pressure;BME280_temperature;BME280_humidity;BME280_pressure;Samples;Min_cycle;Max_cycle;Signal;HPM_P1;HPM_P2
2022/08/28 00:00:11;;;;;;;14.82;3.55;;;17.00;99.90;;;;;;5032019;28;20029;-76
2022/08/28 00:02:37;;;;;;;15.30;3.20;;;17.00;99.90;;;;;;5040056;28;20017;-77
2022/08/28 00:05:05;;;;;;;17.48;3.88;;;17.00;99.90;;;;;;5029474;28;20025;-77
2022/08/28 00:07:30;;;;;;;16.85;3.33;;;17.00;99.90;;;;;;5013346;28;20035;-77
2022/08/28 00:09:56;;;;;;;19.65;3.95;;;16.90;99.90;;;;;;5028811;28;20028;-77
2022/08/28 00:12:22;;;;;;;12.80;3.60;;;16.90;99.90;;;;;;5046187;28;20095;-76
2022/08/28 00:14:48;;;;;;;10.70;3.83;;;16.90;99.90;;;;;;5047062;28;20500;-77
2022/08/28 00:17:13;;;;;;;16.75;3.92;;;16.90;99.90;;;;;;5010314;28;20025;-77
2022/08/28 00:19:40;;;;;;;14.60;3.28;;;16.80;99.90;;;;;;5044723;28;20033;-76
2022/08/28 00:22:06;;;;;;;15.40;3.95;;;16.90;99.90;;;;;;5047779;28;20148;-77
2022/08/28 00:24:32;;;;;;;13.65;3.45;;;16.80;99.90;;;;;;5027593;28;20048;-78
2022/08/28 00:29:43;;;;;;;14.05;4.03;;;16.80;99.90;;;;;;5047342;28;20060;-77
2022/08/28 00:32:09;;;;;;;17.75;4.13;;;16.80;99.90;;;;;;5047101;28;20074;-76
2022/08/28 00:34:35;;;;;;;12.48;3.80;;;16.80;99.90;;;;;;5026025;28;20025;-77
2022/08/28 00:37:01;;;;;;;15.23;3.40;;;16.80;99.90;;;;;;5027565;28;20501;-77
2022/08/28 00:39:27;;;;;;;13.32;3.40;;;16.70;99.90;;;;;;5027473;28;20587;-77
2022/08/28 00:41:52;;;;;;;19.15;4.38;;;16.80;99.90;;;;;;5021489;28;20133;-76
2022/08/28 00:44:23;;;;;;;13.43;3.60;;;16.70;99.90;;;;;;5042953;28;20037;-77
2022/08/28 00:46:52;;;;;;;12.70;3.38;;;16.80;99.90;;;;;;5013065;28;20033;-77
2022/08/28 00:49:23;;;;;;;14.43;3.60;;;16.70;99.90;;;;;;5031929;28;20017;-77
2022/08/28 00:52:10;;;;;;;16.40;4.38;;;16.70;99.90;;;;;;5011464;28;20033;-77
2022/08/28 00:54:40;;;;;;;13.77;3.60;;;16.70;99.90;;;;;;5030251;28;20082;-77
2022/08/28 00:57:11;;;;;;;16.35;4.03;;;16.70;99.90;;;;;;5041059;28;20017;-77
2022/08/28 00:59:37;;;;;;;14.02;3.75;;;16.60;99.90;;;;;;5055528;28;20104;-76
2022/08/28 01:02:05;;;;;;;12.85;3.53;;;16.60;99.90;;;;;;5048515;28;20119;-76
2022/08/28 01:04:32;;;;;;;19.38;3.70;;;16.60;99.90;;;;;;5029225;28;20525;-77
2022/08/28 01:06:59;;;;;;;17.95;4.25;;;16.60;99.90;;;;;;5047770;28;20065;-77
2022/08/28 01:09:28;;;;;;;15.77;3.72;;;16.60;99.90;;;;;;5028624;28;20060;-77
2022/08/28 01:12:00;;;;;;;20.15;4.32;;;16.60;99.90;;;;;;5010384;28;20031;-77
2022/08/28 01:14:28;;;;;;;13.98;4.35;;;16.60;99.90;;;;;;5011055;28;20053;-78
2022/08/28 01:16:55;;;;;;;13.10;4.20;;;16.60;99.90;;;;;;5014062;28;20496;-76
2022/08/28 01:19:42;;;;;;;24.15;3.80;;;16.60;99.90;;;;;;5046472;28;20037;-77
2022/08/28 01:22:29;;;;;;;22.80;4.65;;;16.60;99.90;;;;;;5012478;28;20035;-77
2022/08/28 01:24:59;;;;;;;14.27;4.00;;;16.60;99.90;;;;;;5027612;28;20036;-77
2022/08/28 01:27:25;;;;;;;16.42;4.43;;;16.50;99.90;;;;;;5029568;28;20037;-76
2022/08/28 01:29:51;;;;;;;13.48;3.15;;;16.50;99.90;;;;;;5032743;28;20052;-77
2022/08/28 01:32:36;;;;;;;16.35;3.80;;;16.50;99.90;;;;;;5034032;28;20039;-77
2022/08/28 01:35:05;;;;;;;16.38;3.47;;;16.50;99.90;;;;;;5045352;28;20163;-77
2022/08/28 01:37:31;;;;;;;16.58;3.65;;;16.50;99.90;;;;;;5054537;28;20025;-77
2022/08/28 01:39:57;;;;;;;15.98;3.88;;;16.40;99.90;;;;;;5032146;28;20033;-77
2022/08/28 01:42:24;;;;;;;20.27;4.13;;;16.40;99.90;;;;;;5012698;28;20027;-76
2022/08/28 01:44:52;;;;;;;17.38;4.72;;;16.40;99.90;;;;;;5016337;28;20037;-76
2022/08/28 01:47:20;;;;;;;15.63;3.75;;;16.40;99.90;;;;;;5032802;28;20036;-77
2022/08/28 01:49:46;;;;;;;15.70;4.20;;;16.40;99.90;;;;;;5051296;28;20029;-77
2022/08/28 01:52:12;;;;;;;18.70;3.47;;;16.40;99.90;;;;;;5030864;28;20040;-77
2022/08/28 01:54:38;;;;;;;16.98;4.55;;;16.40;99.90;;;;;;5031728;28;20060;-76
2022/08/28 01:57:04;;;;;;;13.18;3.88;;;16.30;99.90;;;;;;5047288;28;20024;-76
2022/08/28 01:59:31;;;;;;;13.25;4.00;;;16.40;99.90;;;;;;5032227;28;20037;-77
2022/08/28 02:01:56;;;;;;;20.20;4.35;;;16.40;99.90;;;;;;5031949;28;20400;-77
2022/08/28 02:04:23;;;;;;;10.90;3.75;;;16.30;99.90;;;;;;5032423;28;20029;-76
2022/08/28 02:06:49;;;;;;;14.65;3.42;;;16.40;99.90;;;;;;5031489;28;20094;-76
2022/08/28 02:09:15;;;;;;;11.43;3.25;;;16.40;99.90;;;;;;5029843;28;20037;-77
2022/08/28 02:11:42;;;;;;;17.90;4.10;;;16.30;99.90;;;;;;5030517;28;20037;-77
2022/08/28 02:14:08;;;;;;;18.55;4.35;;;16.30;99.90;;;;;;5028065;28;20021;-77
2022/08/28 02:16:34;;;;;;;12.18;3.67;;;16.30;99.90;;;;;;5016772;28;20032;-77
2022/08/28 02:19:00;;;;;;;13.95;3.92;;;16.20;99.90;;;;;;5031372;28;20025;-77
2022/08/28 02:21:25;;;;;;;17.25;4.22;;;16.30;99.90;;;;;;5048446;28;20029;-76
2022/08/28 02:23:52;;;;;;;18.08;4.28;;;16.20;99.90;;;;;;5015071;28;20044;-77
2022/08/28 02:26:18;;;;;;;12.70;3.35;;;16.20;99.90;;;;;;5047604;28;20037;-77
2022/08/28 02:28:44;;;;;;;10.95;3.40;;;16.20;99.90;;;;;;5012792;28;20529;-76
2022/08/28 02:31:11;;;;;;;17.00;4.45;;;16.20;99.90;;;;;;5030036;28;20079;-77
2022/08/28 02:33:38;;;;;;;14.88;3.75;;;16.20;99.90;;;;;;5049524;28;20033;-76
2022/08/28 02:36:07;;;;;;;13.20;3.67;;;16.20;99.90;;;;;;5032127;28;20025;-76
2022/08/28 02:38:33;;;;;;;15.70;4.32;;;16.20;99.90;;;;;;5048547;28;20060;-77
2022/08/28 02:40:59;;;;;;;14.05;3.63;;;16.20;99.90;;;;;;5029801;28;20512;-77
2022/08/28 02:43:25;;;;;;;16.73;3.67;;;16.10;99.90;;;;;;5029885;28;20396;-76
2022/08/28 02:45:57;;;;;;;18.55;5.03;;;16.20;99.90;;;;;;5028616;28;20025;-76
2022/08/28 02:48:28;;;;;;;13.82;4.60;;;16.10;99.90;;;;;;5032040;28;20044;-77
2022/08/28 02:51:01;;;;;;;15.25;4.75;;;16.10;99.90;;;;;;5048654;28;20033;-77
2022/08/28 02:53:28;;;;;;;16.75;5.05;;;16.10;99.90;;;;;;5013789;28;20412;-77
2022/08/28 02:55:55;;;;;;;19.38;5.53;;;16.10;99.90;;;;;;5032045;28;20033;-76
2022/08/28 02:58:20;;;;;;;22.10;6.50;;;16.10;99.90;;;;;;5030100;28;20033;-76
2022/08/28 03:00:46;;;;;;;19.40;5.78;;;16.00;99.90;;;;;;5016865;28;20040;-77
2022/08/28 03:03:12;;;;;;;23.50;5.78;;;16.00;99.90;;;;;;5048215;28;20029;-77
2022/08/28 03:05:38;;;;;;;15.35;5.05;;;16.00;99.90;;;;;;5032678;28;20393;-77
2022/08/28 03:08:04;;;;;;;17.15;4.85;;;16.00;99.90;;;;;;5031911;28;20395;-77
2022/08/28 03:10:29;;;;;;;17.80;4.68;;;16.00;99.90;;;;;;5048827;28;20068;-77
2022/08/28 03:12:55;;;;;;;15.57;4.47;;;16.00;99.90;;;;;;5050070;28;20028;-77
2022/08/28 03:15:21;;;;;;;17.27;5.18;;;16.00;99.90;;;;;;5032354;28;20028;-77
2022/08/28 03:17:47;;;;;;;19.83;5.55;;;16.00;99.90;;;;;;5013030;28;20083;-76
2022/08/28 03:20:13;;;;;;;15.63;4.20;;;16.00;99.90;;;;;;5013868;28;20409;-77
2022/08/28 03:25:24;;;;;;;18.55;4.00;;;16.00;99.90;;;;;;5028457;28;20039;-77
2022/08/28 03:27:50;;;;;;;24.23;4.47;;;15.90;99.90;;;;;;5045866;28;20032;-76
2022/08/28 03:30:16;;;;;;;17.23;4.28;;;16.00;99.90;;;;;;5015106;28;20025;-78
2022/08/28 03:32:42;;;;;;;15.00;3.55;;;15.90;99.90;;;;;;5046878;28;20043;-77
2022/08/28 03:35:09;;;;;;;13.73;3.75;;;15.90;99.90;;;;;;5012292;28;20484;-77
2022/08/28 03:37:34;;;;;;;17.63;4.32;;;15.90;99.90;;;;;;5027131;28;20114;-77
2022/08/28 03:40:00;;;;;;;19.33;4.05;;;15.90;99.90;;;;;;5031088;28;20488;-76
2022/08/28 03:42:26;;;;;;;15.57;4.00;;;15.90;99.90;;;;;;5028871;28;20033;-77
2022/08/28 03:44:53;;;;;;;20.92;4.05;;;15.90;99.90;;;;;;5028795;28;20425;-77
2022/08/28 03:47:19;;;;;;;14.98;3.65;;;15.90;99.90;;;;;;5046331;28;20113;-77
2022/08/28 03:49:44;;;;;;;15.88;3.28;;;15.80;99.90;;;;;;5043069;28;20061;-76
2022/08/28 03:52:11;;;;;;;17.45;4.15;;;15.80;99.90;;;;;;5017843;28;20028;-77
2022/08/28 03:54:37;;;;;;;16.02;3.67;;;15.80;99.90;;;;;;5049225;28;20024;-75
2022/08/28 03:57:03;;;;;;;14.93;3.55;;;15.80;99.90;;;;;;5028170;28;20097;-75
2022/08/28 03:59:29;;;;;;;14.50;3.47;;;15.80;99.90;;;;;;5030179;28;20060;-76
2022/08/28 04:01:54;;;;;;;16.23;3.53;;;15.80;99.90;;;;;;5029925;28;20053;-77
2022/08/28 04:04:20;;;;;;;15.18;3.25;;;15.80;99.90;;;;;;5013695;28;20028;-76
2022/08/28 04:06:46;;;;;;;15.95;3.55;;;15.80;99.90;;;;;;5028299;28;20059;-78
2022/08/28 04:09:11;;;;;;;16.98;3.60;;;15.80;99.90;;;;;;5048550;28;20033;-77
2022/08/28 04:11:41;;;;;;;15.13;3.38;;;15.80;99.90;;;;;;5046269;28;20139;-76
2022/08/28 04:14:07;;;;;;;14.07;3.38;;;15.80;99.90;;;;;;5046556;28;20042;-76
2022/08/28 04:16:34;;;;;;;18.23;4.20;;;15.80;99.90;;;;;;5029547;28;20074;-76
2022/08/28 04:18:59;;;;;;;12.55;3.65;;;15.80;99.90;;;;;;5046401;28;20474;-77
2022/08/28 04:21:26;;;;;;;13.35;3.83;;;15.80;99.90;;;;;;5029175;28;20025;-76
2022/08/28 04:23:53;;;;;;;17.15;4.40;;;15.70;99.90;;;;;;5030470;28;20049;-77
2022/08/28 04:26:22;;;;;;;16.67;3.72;;;15.70;99.90;;;;;;5045820;28;20033;-77
2022/08/28 04:28:48;;;;;;;17.98;3.80;;;15.70;99.90;;;;;;5046608;28;20099;-78
2022/08/28 04:31:15;;;;;;;14.80;3.50;;;15.70;99.90;;;;;;5041981;28;20040;-76
2022/08/28 04:33:40;;;;;;;17.67;3.47;;;15.80;99.90;;;;;;5029235;28;20397;-76
2022/08/28 04:36:13;;;;;;;11.23;3.13;;;15.70;99.90;;;;;;5011892;28;20025;-76
2022/08/28 04:38:40;;;;;;;16.90;4.00;;;15.80;99.90;;;;;;5043213;28;20109;-76
2022/08/28 04:41:10;;;;;;;14.50;3.53;;;15.70;99.90;;;;;;5046488;28;20033;-77
2022/08/28 04:43:35;;;;;;;19.80;4.65;;;15.70;99.90;;;;;;5026275;28;20021;-77
2022/08/28 04:46:07;;;;;;;16.02;3.28;;;15.70;99.90;;;;;;5047937;28;20036;-76
2022/08/28 04:48:37;;;;;;;12.65;3.50;;;15.80;99.90;;;;;;5028654;28;20139;-77
2022/08/28 04:51:08;;;;;;;14.98;3.80;;;15.70;99.90;;;;;;5048658;28;20040;-75
2022/08/28 04:53:35;;;;;;;16.42;3.97;;;15.80;99.90;;;;;;5028816;28;20033;-78
2022/08/28 04:56:04;;;;;;;13.45;3.00;;;15.80;99.90;;;;;;5030895;28;20056;-77
2022/08/28 04:58:32;;;;;;;10.52;3.50;;;15.80;99.90;;;;;;5011707;28;20419;-77
2022/08/28 05:01:03;;;;;;;15.25;3.70;;;15.80;99.90;;;;;;5030578;28;20040;-76
2022/08/28 05:03:28;;;;;;;15.10;4.15;;;15.80;99.90;;;;;;5048989;28;20464;-76
2022/08/28 05:05:54;;;;;;;11.13;3.30;;;15.80;99.90;;;;;;5040077;28;20045;-75
2022/08/28 05:08:23;;;;;;;17.98;3.30;;;15.80;99.90;;;;;;5060907;28;20147;-77
2022/08/28 05:10:49;;;;;;;13.98;3.33;;;15.80;99.90;;;;;;5043376;28;20037;-76
2022/08/28 05:13:15;;;;;;;9.98;3.85;;;15.80;99.90;;;;;;5035862;28;20108;-76
2022/08/28 05:15:43;;;;;;;25.50;4.03;;;15.80;99.90;;;;;;5052909;28;20081;-76
2022/08/28 05:18:10;;;;;;;16.15;3.55;;;15.80;99.90;;;;;;5050491;28;20031;-74
2022/08/28 05:20:38;;;;;;;12.60;3.65;;;15.80;99.90;;;;;;5031412;28;20849;-70
2022/08/28 05:23:06;;;;;;;11.50;3.88;;;15.90;99.90;;;;;;5049912;28;20032;-73
2022/08/28 05:25:36;;;;;;;17.35;4.03;;;15.90;99.90;;;;;;5050611;28;20036;-71
2022/08/28 05:28:04;;;;;;;13.43;3.60;;;15.90;99.90;;;;;;5048179;28;20035;-71
2022/08/28 05:30:31;;;;;;;15.32;3.75;;;15.90;99.90;;;;;;5032204;28;20055;-72
2022/08/28 05:32:58;;;;;;;15.27;3.88;;;15.90;99.90;;;;;;5050813;28;20033;-78
2022/08/28 05:35:23;;;;;;;17.35;3.70;;;16.00;99.90;;;;;;5034714;28;20029;-77
2022/08/28 05:37:51;;;;;;;16.58;4.00;;;16.00;99.90;;;;;;5015562;28;20131;-77
2022/08/28 05:40:21;;;;;;;12.32;3.13;;;16.00;99.90;;;;;;5050667;28;20117;-75
2022/08/28 05:42:48;;;;;;;17.48;3.40;;;16.00;99.90;;;;;;5031305;28;20017;-76
2022/08/28 05:45:13;;;;;;;16.08;3.63;;;16.00;99.90;;;;;;5013592;28;20029;-76
2022/08/28 05:47:39;;;;;;;15.95;3.78;;;16.10;99.90;;;;;;5047757;28;20044;-79
2022/08/28 05:50:07;;;;;;;13.60;3.40;;;16.10;99.90;;;;;;5039737;28;20028;-76
2022/08/28 05:52:33;;;;;;;16.25;3.85;;;16.10;99.90;;;;;;5039152;28;20061;-80
2022/08/28 05:55:01;;;;;;;10.48;3.17;;;16.20;99.90;;;;;;5032738;28;20039;-79
2022/08/28 05:57:28;;;;;;;12.93;2.70;;;16.20;99.90;;;;;;5030771;28;20091;-80
2022/08/28 05:59:53;;;;;;;7.45;2.97;;;16.20;99.90;;;;;;5020583;28;20021;-78
2022/08/28 06:02:19;;;;;;;15.55;3.38;;;16.20;99.90;;;;;;5023160;28;20055;-75
2022/08/28 06:04:46;;;;;;;10.10;3.15;;;16.20;99.90;;;;;;5021278;28;20032;-79
2022/08/28 06:07:14;;;;;;;10.02;3.05;;;16.30;99.90;;;;;;5033835;28;20029;-79
2022/08/28 06:09:40;;;;;;;15.55;3.25;;;16.30;99.90;;;;;;5034881;28;20064;-77
2022/08/28 06:12:07;;;;;;;14.60;3.63;;;16.40;99.90;;;;;;5031015;28;20393;-77
2022/08/28 06:14:33;;;;;;;16.60;3.80;;;16.40;99.90;;;;;;5030417;28;20408;-78
2022/08/28 06:17:00;;;;;;;10.18;2.95;;;16.40;99.90;;;;;;5033087;28;20032;-76
2022/08/28 06:19:28;;;;;;;14.02;3.70;;;16.40;99.90;;;;;;5052150;28;20028;-77
2022/08/28 06:21:56;;;;;;;18.08;3.05;;;16.50;99.90;;;;;;5016932;28;20492;-77
2022/08/28 06:24:23;;;;;;;12.45;2.67;;;16.50;99.90;;;;;;5016288;28;20098;-77
2022/08/28 06:26:48;;;;;;;15.57;3.67;;;16.50;99.90;;;;;;5018458;28;20477;-77
2022/08/28 06:29:17;;;;;;;12.88;3.38;;;16.60;99.90;;;;;;5028095;28;20123;-77
2022/08/28 06:31:43;;;;;;;15.07;3.30;;;16.60;99.90;;;;;;5010408;28;20094;-77
2022/08/28 06:34:09;;;;;;;10.23;2.97;;;16.60;99.90;;;;;;5012180;28;20033;-77
2022/08/28 06:36:40;;;;;;;13.77;2.90;;;16.70;99.90;;;;;;5031612;28;20028;-77
2022/08/28 06:39:08;;;;;;;10.48;2.92;;;16.70;99.90;;;;;;5059969;28;20021;-77
2022/08/28 06:41:39;;;;;;;13.55;3.22;;;16.70;99.90;;;;;;5036132;28;20033;-77
2022/08/28 06:44:06;;;;;;;15.07;3.40;;;16.70;99.90;;;;;;5056839;28;20550;-76
2022/08/28 06:46:33;;;;;;;13.07;3.10;;;16.80;99.90;;;;;;5047411;28;20033;-76
2022/08/28 06:49:00;;;;;;;11.80;2.92;;;16.90;99.90;;;;;;5047124;28;20039;-77
2022/08/28 06:51:26;;;;;;;16.02;3.70;;;16.90;99.90;;;;;;5033101;28;20021;-78
2022/08/28 06:53:51;;;;;;;12.38;3.08;;;17.00;99.90;;;;;;5032881;28;21478;-78
2022/08/28 06:56:19;;;;;;;8.57;3.03;;;17.00;99.90;;;;;;5034461;28;20075;-80
2022/08/28 06:58:46;;;;;;;12.15;2.92;;;17.10;99.90;;;;;;5033782;28;20044;-79
2022/08/28 07:01:21;;;;;;;10.95;3.08;;;17.10;99.90;;;;;;5013484;28;20029;-77
2022/08/28 07:03:48;;;;;;;10.23;3.53;;;17.10;99.90;;;;;;5030260;28;20037;-78
2022/08/28 07:06:15;;;;;;;12.55;3.05;;;17.10;99.90;;;;;;5029134;28;20109;-78
2022/08/28 07:08:42;;;;;;;11.35;2.65;;;17.20;99.90;;;;;;5019409;28;20043;-79
2022/08/28 07:11:20;;;;;;;10.00;2.80;;;17.20;99.90;;;;;;5017548;28;20045;-81
2022/08/28 07:13:47;;;;;;;16.67;3.05;;;17.20;99.90;;;;;;5053633;28;20020;-77
2022/08/28 07:16:17;;;;;;;13.20;3.00;;;17.30;99.90;;;;;;5034186;28;20040;-79
2022/08/28 07:18:44;;;;;;;12.50;3.33;;;17.30;99.90;;;;;;5054564;28;20021;-79
2022/08/28 07:21:12;;;;;;;10.77;2.70;;;17.30;99.90;;;;;;5039579;28;20032;-79
2022/08/28 07:23:40;;;;;;;13.10;3.08;;;17.40;99.90;;;;;;5023155;28;20040;-79
2022/08/28 07:26:13;;;;;;;11.05;3.00;;;17.40;99.90;;;;;;5045426;28;20039;-79
2022/08/28 07:28:40;;;;;;;9.25;2.55;;;18.00;99.90;;;;;;5044989;28;20101;-79
2022/08/28 07:31:16;;;;;;;8.10;2.70;;;17.80;99.90;;;;;;5043443;28;20155;-78
2022/08/28 07:33:43;;;;;;;15.82;3.10;;;17.80;99.90;;;;;;5034647;28;20571;-79
2022/08/28 07:36:13;;;;;;;14.43;3.60;;;17.70;99.90;;;;;;5028878;28;20704;-79
2022/08/28 07:38:38;;;;;;;8.68;3.47;;;17.70;99.90;;;;;;5031295;28;20056;-82
2022/08/28 07:41:16;;;;;;;11.82;3.05;;;17.70;99.90;;;;;;5024703;28;20227;-81
2022/08/28 07:46:29;;;;;;;11.95;2.63;;;17.80;99.90;;;;;;5046402;28;20036;-79
2022/08/28 07:48:57;;;;;;;11.18;2.97;;;17.80;99.90;;;;;;5026081;28;20033;-78
2022/08/28 07:51:24;;;;;;;12.55;3.28;;;17.90;99.90;;;;;;5030723;28;20115;-80
2022/08/28 07:53:51;;;;;;;11.68;3.15;;;18.00;99.90;;;;;;5009792;28;20583;-79
2022/08/28 07:56:17;;;;;;;9.07;2.45;;;18.10;99.90;;;;;;5027167;28;20079;-79
2022/08/28 07:58:44;;;;;;;7.35;2.70;;;18.20;99.90;;;;;;5024758;28;20033;-79
2022/08/28 08:01:11;;;;;;;13.15;3.17;;;18.30;99.90;;;;;;5008305;28;20619;-78
2022/08/28 08:03:37;;;;;;;9.98;3.33;;;18.50;99.90;;;;;;5029367;28;20025;-79
2022/08/28 08:06:04;;;;;;;11.73;3.67;;;18.50;99.90;;;;;;5047346;28;20032;-74
2022/08/28 08:08:32;;;;;;;12.07;3.65;;;18.50;99.90;;;;;;5028939;28;20032;-78
2022/08/28 08:11:08;;;;;;;9.70;2.55;;;18.60;99.90;;;;;;5024629;28;20039;-77
2022/08/28 08:13:38;;;;;;;10.05;2.83;;;18.70;99.90;;;;;;5042323;28;20102;-77
2022/08/28 08:16:13;;;;;;;9.63;2.33;;;18.70;99.90;;;;;;5026337;28;20091;-84
2022/08/28 08:18:40;;;;;;;8.90;2.75;;;18.70;99.90;;;;;;5014101;28;20035;-80
2022/08/28 08:21:10;;;;;;;5.55;2.28;;;18.70;99.90;;;;;;5026859;28;20061;-75
2022/08/28 08:23:37;;;;;;;14.82;3.05;;;18.70;99.90;;;;;;5024352;28;20040;-79
2022/08/28 08:26:05;;;;;;;13.00;2.83;;;18.70;99.90;;;;;;5008094;28;20029;-75
2022/08/28 08:28:33;;;;;;;12.32;3.65;;;18.80;99.90;;;;;;5039978;28;20025;-75
2022/08/28 08:31:14;;;;;;;8.05;2.83;;;18.90;99.90;;;;;;5041699;28;20402;-74
2022/08/28 08:33:43;;;;;;;5.95;2.22;;;19.00;99.90;;;;;;5041775;28;20056;-74
2022/08/28 08:36:13;;;;;;;9.13;2.60;;;19.00;99.90;;;;;;5022593;28;20088;-76
2022/08/28 08:38:40;;;;;;;12.38;3.20;;;19.00;99.90;;;;;;5039153;28;20024;-75
2022/08/28 08:41:29;;;;;;;15.68;2.97;;;19.10;99.90;;;;;;5026922;28;20250;-77
2022/08/28 08:44:22;;;;;;;9.65;2.75;;;19.10;99.60;;;;;;5018040;28;20119;-75
2022/08/28 08:47:14;;;;;;;11.25;3.20;;;19.10;99.70;;;;;;5043838;28;20033;-75
2022/08/28 08:49:48;;;;;;;10.38;2.92;;;19.00;99.70;;;;;;5008008;28;20037;-76
2022/08/28 08:52:27;;;;;;;10.85;2.50;;;18.90;99.90;;;;;;5043918;28;20063;-79
2022/08/28 08:55:19;;;;;;;10.15;2.97;;;18.90;99.90;;;;;;5026423;28;20032;-76
2022/08/28 08:57:50;;;;;;;10.07;3.00;;;19.00;99.90;;;;;;4999932;28;20108;-78
2022/08/28 09:00:17;;;;;;;12.13;2.95;;;19.10;99.90;;;;;;5047574;28;20108;-80
2022/08/28 09:02:55;;;;;;;12.82;2.67;;;19.00;99.80;;;;;;5025610;28;20089;-79
2022/08/28 09:05:38;;;;;;;9.68;3.03;;;19.10;99.90;;;;;;5029293;28;20060;-76
2022/08/28 09:08:11;;;;;;;7.53;2.75;;;19.30;99.90;;;;;;5011794;28;20497;-77
2022/08/28 09:10:41;;;;;;;9.30;2.75;;;19.30;99.90;;;;;;5004968;28;20626;-76
2022/08/28 09:13:26;;;;;;;8.65;2.55;;;19.30;99.90;;;;;;5011621;28;20032;-76
2022/08/28 09:15:52;;;;;;;13.52;3.65;;;19.30;99.90;;;;;;5021588;28;20033;-74
2022/08/28 09:18:30;;;;;;;12.43;3.33;;;19.30;99.90;;;;;;5045459;28;20366;-75
2022/08/28 09:20:58;;;;;;;10.60;2.72;;;19.30;99.80;;;;;;5029061;28;20088;-77
2022/08/28 09:23:25;;;;;;;10.55;2.80;;;19.20;99.50;;;;;;5027003;28;20044;-76
2022/08/28 09:26:01;;;;;;;8.55;2.65;;;19.40;99.60;;;;;;5022880;28;20098;-76
2022/08/28 09:28:30;;;;;;;8.23;2.60;;;19.50;99.40;;;;;;5042534;28;20039;-76
2022/08/28 09:31:06;;;;;;;11.88;2.42;;;19.60;99.00;;;;;;5044251;28;20033;-76
2022/08/28 09:33:41;;;;;;;8.98;2.53;;;19.60;98.60;;;;;;5045239;28;20684;-78
2022/08/28 09:36:26;;;;;;;12.93;3.38;;;19.60;98.40;;;;;;5042050;28;20045;-77
2022/08/28 09:39:04;;;;;;;11.15;2.60;;;19.80;98.30;;;;;;5046885;28;20048;-76
2022/08/28 09:44:16;;;;;;;10.75;3.00;;;19.90;97.70;;;;;;5042578;28;20039;-76
2022/08/28 09:46:48;;;;;;;9.80;2.90;;;19.90;97.90;;;;;;5029270;28;20523;-76
2022/08/28 09:49:24;;;;;;;12.93;3.03;;;19.80;98.30;;;;;;5024922;28;20051;-77
2022/08/28 09:51:50;;;;;;;11.27;3.25;;;19.70;98.30;;;;;;5030987;28;20496;-77
2022/08/28 09:54:38;;;;;;;10.02;2.55;;;19.80;98.40;;;;;;5048123;28;20033;-78
2022/08/28 09:57:04;;;;;;;7.38;2.28;;;20.00;98.10;;;;;;5048888;28;20639;-76
2022/08/28 09:59:30;;;;;;;10.30;3.03;;;20.30;97.80;;;;;;5031222;28;20025;-78
2022/08/28 10:02:15;;;;;;;11.18;2.40;;;20.20;97.60;;;;;;5011701;28;20170;-77
2022/08/28 10:04:50;;;;;;;12.23;3.00;;;20.10;98.10;;;;;;5013971;28;20516;-77
2022/08/28 10:07:21;;;;;;;13.77;3.25;;;20.10;98.20;;;;;;5048604;28;20288;-75
2022/08/28 10:10:02;;;;;;;9.60;2.55;;;20.00;98.20;;;;;;5031043;28;20029;-75
2022/08/28 10:12:45;;;;;;;6.18;2.65;;;20.00;98.60;;;;;;5030686;28;20040;-76
2022/08/28 10:15:25;;;;;;;6.68;2.38;;;20.00;97.80;;;;;;5029416;28;20035;-76
2022/08/28 10:18:16;;;;;;;9.60;2.63;;;20.20;97.40;;;;;;5047980;28;20503;-76
2022/08/28 10:20:53;;;;;;;13.40;3.70;;;20.40;97.00;;;;;;5030459;28;20404;-77
2022/08/28 10:23:58;;;;;;;8.18;3.08;;;20.40;96.90;;;;;;5049128;28;20029;-77
2022/08/28 10:27:06;;;;;;;11.23;2.90;;;20.40;96.60;;;;;;5032004;28;20025;-76
2022/08/28 10:29:49;;;;;;;10.20;2.72;;;20.30;96.90;;;;;;5026632;28;20037;-76
2022/08/28 10:32:53;;;;;;;11.60;2.78;;;20.40;97.10;;;;;;5048841;28;20041;-76
2022/08/28 10:35:19;;;;;;;11.25;3.53;;;20.40;97.00;;;;;;5049459;28;20456;-76
2022/08/28 10:38:15;;;;;;;10.88;2.92;;;20.40;97.00;;;;;;5030501;28;20107;-76
2022/08/28 10:40:55;;;;;;;12.52;3.50;;;20.30;97.50;;;;;;5009624;28;20524;-75
2022/08/28 10:43:45;;;;;;;8.25;3.20;;;20.20;97.70;;;;;;5048288;28;20021;-76
2022/08/28 10:46:29;;;;;;;8.05;2.55;;;20.00;97.60;;;;;;5028164;28;20408;-76
2022/08/28 10:49:05;;;;;;;10.90;3.28;;;19.90;97.40;;;;;;5026939;28;20416;-76
2022/08/28 10:51:48;;;;;;;9.95;3.17;;;19.90;97.40;;;;;;5043676;28;20029;-76
2022/08/28 10:54:32;;;;;;;14.35;4.10;;;19.90;97.60;;;;;;5004705;28;20110;-76
2022/08/28 10:57:10;;;;;;;11.25;3.33;;;19.90;97.80;;;;;;5011326;28;20051;-76
2022/08/28 10:59:38;;;;;;;15.93;3.08;;;19.90;97.80;;;;;;5045856;28;20473;-76
2022/08/28 11:02:07;;;;;;;10.60;3.35;;;19.80;97.70;;;;;;5038376;28;20365;-76
2022/08/28 11:04:34;;;;;;;11.07;3.70;;;19.80;97.90;;;;;;5024146;28;20032;-77
2022/08/28 11:07:05;;;;;;;11.70;3.63;;;19.70;97.90;;;;;;5029009;28;20295;-76
2022/08/28 11:09:57;;;;;;;9.38;3.13;;;19.70;98.00;;;;;;5041666;28;20033;-75
2022/08/28 11:12:36;;;;;;;10.05;3.72;;;19.80;97.30;;;;;;5024013;28;20040;-76
2022/08/28 11:15:50;;;;;;;11.00;3.75;;;19.90;97.30;;;;;;5043050;28;20033;-75
2022/08/28 11:18:55;;;;;;;12.82;3.33;;;20.10;97.20;;;;;;4945118;28;20404;-75
2022/08/28 11:22:01;;;;;;;10.95;3.60;;;20.20;97.30;;;;;;4944723;28;20069;-74
2022/08/28 11:24:30;;;;;;;10.68;3.78;;;20.30;97.10;;;;;;4871714;29;20216;-75
2022/08/28 11:27:17;;;;;;;12.73;4.18;;;20.60;97.10;;;;;;4922856;29;20047;-75
2022/08/28 11:30:09;;;;;;;13.65;3.80;;;20.80;96.50;;;;;;4943139;28;20178;-74
2022/08/28 11:32:38;;;;;;;7.05;2.95;;;20.90;95.20;;;;;;4943957;28;20031;-74
2022/08/28 11:35:39;;;;;;;8.70;3.55;;;20.80;93.80;;;;;;4928272;29;20056;-75
2022/08/28 11:38:05;;;;;;;8.33;2.80;;;20.80;93.60;;;;;;4942276;28;20038;-75
2022/08/28 11:40:30;;;;;;;10.77;3.03;;;20.80;93.40;;;;;;4912374;28;20294;-75
2022/08/28 11:43:14;;;;;;;11.70;3.38;;;20.80;93.30;;;;;;4925846;29;20415;-75
2022/08/28 11:45:44;;;;;;;7.85;3.00;;;20.90;93.20;;;;;;4944846;28;20047;-75
2022/08/28 11:48:22;;;;;;;9.52;3.25;;;20.90;92.70;;;;;;4939579;28;20044;-75
2022/08/28 11:51:05;;;;;;;10.05;3.65;;;20.90;92.60;;;;;;5044572;28;20025;-75
2022/08/28 11:53:42;;;;;;;14.52;4.13;;;21.00;92.80;;;;;;5029907;28;20025;-76
2022/08/28 11:56:40;;;;;;;8.10;3.38;;;21.10;92.90;;;;;;5027539;28;20599;-76
2022/08/28 11:59:05;;;;;;;9.32;3.13;;;21.10;93.40;;;;;;5039685;28;20021;-76
2022/08/28 12:01:36;;;;;;;8.00;3.20;;;21.00;93.10;;;;;;5025805;28;20079;-74
2022/08/28 12:04:06;;;;;;;;;;;21.10;93.20;;;;;;5044841;28;20029;-75
2022/08/28 12:06:46;;;;;;;9.88;3.70;;;21.30;93.30;;;;;;5023332;28;19966;-76
2022/08/28 12:09:24;;;;;;;10.43;3.83;;;21.60;93.30;;;;;;5026480;28;20037;-75
2022/08/28 12:11:53;;;;;;;11.35;3.90;;;21.50;92.20;;;;;;5022728;28;20329;-76
2022/08/28 12:14:24;;;;;;;11.65;3.88;;;21.20;92.40;;;;;;5034309;28;20139;-75
2022/08/28 12:17:00;;;;;;;10.32;3.63;;;21.10;93.30;;;;;;5021335;28;20050;-75
2022/08/28 12:19:40;;;;;;;11.00;3.63;;;21.70;92.90;;;;;;5056780;28;20068;-74
2022/08/28 12:22:10;;;;;;;19.42;4.88;;;22.20;91.70;;;;;;5031076;28;20149;-76
2022/08/28 12:24:46;;;;;;;10.40;3.42;;;22.10;91.50;;;;;;5011934;28;20111;-76
2022/08/28 12:27:13;;;;;;;8.43;3.15;;;21.90;91.30;;;;;;5042848;28;20029;-74
2022/08/28 12:29:48;;;;;;;8.82;3.30;;;21.70;91.50;;;;;;5044409;28;20616;-75
2022/08/28 12:32:34;;;;;;;8.75;3.45;;;21.70;91.50;;;;;;5055804;28;20155;-76
2022/08/28 12:35:17;;;;;;;10.07;4.28;;;21.60;91.70;;;;;;5052602;28;20025;-76
2022/08/28 12:37:57;;;;;;;7.25;3.95;;;21.70;92.10;;;;;;5014467;28;20033;-76
2022/08/28 12:40:52;;;;;;;10.60;3.90;;;22.50;91.40;;;;;;5031167;28;20040;-77
2022/08/28 12:43:28;;;;;;;8.45;3.65;;;23.30;87.40;;;;;;5041346;28;20045;-76
2022/08/28 12:46:08;;;;;;;9.63;3.20;;;23.00;86.00;;;;;;5039339;28;20060;-78
2022/08/28 12:48:49;;;;;;;8.03;3.40;;;22.50;87.30;;;;;;5023471;28;20033;-76
2022/08/28 12:51:20;;;;;;;;;;;22.00;90.30;;;;;;5021768;28;20456;-78
2022/08/28 12:53:49;;;;;;;10.98;3.30;;;21.60;91.40;;;;;;5023849;28;19909;-78
2022/08/28 12:56:18;;;;;;;9.50;3.10;;;21.50;91.90;;;;;;5027037;28;20028;-79
2022/08/28 12:58:45;;;;;;;11.60;3.60;;;21.40;92.20;;;;;;5023723;28;20256;-78
2022/08/28 13:01:41;;;;;;;9.75;3.88;;;21.20;92.60;;;;;;5019663;28;20571;-78
2022/08/28 13:04:35;;;;;;;9.07;3.47;;;21.00;93.20;;;;;;4982767;28;20529;-76
2022/08/28 13:07:13;;;;;;;8.25;3.35;;;20.90;93.50;;;;;;4985997;28;20487;-77
2022/08/28 13:09:53;;;;;;;11.63;3.97;;;20.80;93.80;;;;;;4986346;28;20056;-76